Time;durP1;ratioP1;P1;durP2;ratioP2;P2;SDS_P1;SDS_P2;PMS_P1;PMS_P2;Temp;Humidity;BMP_temperature;BMP_pressure;BME280_temperature;BME280_humidity;BME280_pressure;Samples;Min_cycle;Max_cycle;Signal;HPM_P1;HPM_P2
2023/01/05 00:01:55;;;;;;;0.73;0.73;;;8.50;99.90;;;;;;5040181;28;20029;-77
2023/01/05 00:04:22;;;;;;;1.23;0.50;;;8.50;99.90;;;;;;5062359;28;20047;-78
2023/01/05 00:06:48;;;;;;;0.90;0.80;;;8.50;99.90;;;;;;5027866;28;20112;-78
2023/01/05 00:09:16;;;;;;;1.85;0.50;;;8.40;99.90;;;;;;5051267;28;20087;-78
2023/01/05 00:22:55;;;;;;;0.80;0.80;;;8.50;99.90;;;;;;5064228;28;20033;-78
2023/01/05 00:25:26;;;;;;;0.60;0.60;;;8.50;99.90;;;;;;5035505;28;20034;-79
2023/01/05 00:27:53;;;;;;;0.77;0.70;;;8.50;99.90;;;;;;5066674;28;20037;-78
2023/01/05 00:30:22;;;;;;;0.90;0.90;;;8.40;99.90;;;;;;5068074;28;20098;-79
2023/01/05 00:32:48;;;;;;;1.27;0.93;;;8.50;99.90;;;;;;5064108;28;20085;-79
2023/01/05 00:35:15;;;;;;;1.10;1.00;;;8.50;99.90;;;;;;5074067;28;20103;-78
2023/01/05 00:37:41;;;;;;;1.10;1.05;;;8.50;99.90;;;;;;5073197;28;20048;-78
2023/01/05 00:40:15;;;;;;;1.00;0.90;;;8.50;99.90;;;;;;5057496;28;20035;-78
2023/01/05 00:42:41;;;;;;;1.00;0.90;;;8.50;99.90;;;;;;5075439;28;20104;-79
2023/01/05 00:45:10;;;;;;;1.25;1.02;;;8.50;99.90;;;;;;5053470;28;20119;-78
2023/01/05 00:47:36;;;;;;;0.80;0.80;;;8.50;99.90;;;;;;5075418;28;20033;-78
2023/01/05 00:50:03;;;;;;;1.30;0.80;;;8.50;99.90;;;;;;5057654;28;20047;-78
2023/01/05 00:52:29;;;;;;;0.70;0.70;;;8.50;99.90;;;;;;5071903;28;20242;-78
2023/01/05 00:54:56;;;;;;;0.93;0.70;;;8.50;99.90;;;;;;5079028;28;20035;-78
2023/01/05 00:57:21;;;;;;;1.02;0.85;;;8.50;99.90;;;;;;5041624;28;20031;-78
2023/01/05 00:59:47;;;;;;;1.00;0.65;;;8.60;99.90;;;;;;5057555;28;20021;-78
2023/01/05 01:02:13;;;;;;;0.80;0.80;;;8.60;99.90;;;;;;5073227;28;20111;-79
2023/01/05 01:04:39;;;;;;;1.60;1.00;;;8.60;99.90;;;;;;5071836;28;20044;-79
2023/01/05 01:07:05;;;;;;;1.83;0.80;;;8.60;99.90;;;;;;5067630;28;20028;-79
2023/01/05 01:09:31;;;;;;;1.77;0.65;;;8.60;99.90;;;;;;5047510;28;20052;-78
2023/01/05 01:11:57;;;;;;;1.13;0.90;;;8.60;99.90;;;;;;5071901;28;20040;-79
2023/01/05 01:14:23;;;;;;;0.70;0.60;;;8.60;99.90;;;;;;5056126;28;20032;-79
2023/01/05 01:16:49;;;;;;;2.13;0.60;;;8.60;99.90;;;;;;5042769;28;20502;-79
2023/01/05 01:19:18;;;;;;;0.73;0.70;;;8.60;99.90;;;;;;5074108;28;20032;-78
2023/01/05 01:21:45;;;;;;;1.52;0.93;;;8.70;99.90;;;;;;5049414;28;20052;-79
2023/01/05 01:24:22;;;;;;;6.00;1.10;;;8.70;99.90;;;;;;5068656;28;20032;-79
2023/01/05 01:26:49;;;;;;;1.13;0.70;;;8.70;99.90;;;;;;5071369;28;20477;-80
2023/01/05 01:29:18;;;;;;;0.98;0.60;;;8.70;99.90;;;;;;5064142;28;20123;-79
2023/01/05 01:31:47;;;;;;;0.70;0.70;;;8.60;99.90;;;;;;5072520;28;20418;-79
2023/01/05 01:34:14;;;;;;;0.75;0.63;;;8.70;99.90;;;;;;5062230;28;20021;-80
2023/01/05 01:36:40;;;;;;;0.50;0.40;;;8.60;99.90;;;;;;5061542;28;20056;-80
2023/01/05 01:39:07;;;;;;;0.60;0.60;;;8.60;99.90;;;;;;5042376;28;20031;-78
2023/01/05 01:41:35;;;;;;;47.47;3.40;;;8.70;99.90;;;;;;5075393;28;20051;-79
2023/01/05 01:44:01;;;;;;;0.52;0.50;;;8.70;99.90;;;;;;5052051;28;20051;-79
2023/01/05 01:46:27;;;;;;;0.65;0.50;;;8.70;99.90;;;;;;5051986;28;20029;-78
2023/01/05 01:49:03;;;;;;;0.70;0.38;;;8.70;99.90;;;;;;5030994;28;20028;-79
2023/01/05 01:51:37;;;;;;;0.40;0.32;;;8.80;99.90;;;;;;5049525;28;20047;-79
2023/01/05 01:54:08;;;;;;;1.13;0.68;;;8.70;99.90;;;;;;5053922;28;20044;-79
2023/01/05 01:56:40;;;;;;;1.23;0.60;;;8.70;99.90;;;;;;5074178;28;20029;-79
2023/01/05 01:59:06;;;;;;;0.38;0.38;;;8.70;99.90;;;;;;5058689;28;20033;-79
2023/01/05 02:01:33;;;;;;;0.40;0.40;;;8.70;99.90;;;;;;5051432;28;20043;-79
2023/01/05 02:04:02;;;;;;;3.13;0.60;;;8.70;99.90;;;;;;5032326;28;20039;-79
2023/01/05 02:06:28;;;;;;;0.50;0.50;;;8.70;99.90;;;;;;5057361;28;20116;-79
2023/01/05 02:08:54;;;;;;;4.82;0.50;;;8.70;99.90;;;;;;5056301;28;20052;-79
2023/01/05 02:11:32;;;;;;;0.30;0.30;;;8.70;99.90;;;;;;5036853;28;20558;-79
2023/01/05 02:14:11;;;;;;;0.32;0.32;;;8.70;99.90;;;;;;5052181;28;20032;-79
2023/01/05 02:17:00;;;;;;;12.25;1.17;;;8.70;99.90;;;;;;5049326;28;20023;-79
2023/01/05 02:19:48;;;;;;;2.60;0.60;;;8.70;99.90;;;;;;5041262;28;20573;-79
2023/01/05 02:22:17;;;;;;;2.25;0.60;;;8.70;99.90;;;;;;5062305;28;20025;-78
2023/01/05 02:25:02;;;;;;;0.60;0.60;;;8.70;99.90;;;;;;5055571;28;20032;-78
2023/01/05 02:27:59;;;;;;;0.50;0.50;;;8.80;99.90;;;;;;5049733;28;20549;-79
2023/01/05 02:30:59;;;;;;;0.50;0.40;;;8.80;99.90;;;;;;5054694;28;20035;-79
2023/01/05 02:34:01;;;;;;;0.40;0.40;;;8.80;99.90;;;;;;5051496;28;20098;-79
2023/01/05 02:36:40;;;;;;;0.30;0.30;;;8.80;99.90;;;;;;5055535;28;20039;-79
2023/01/05 02:39:16;;;;;;;0.20;0.20;;;8.80;99.90;;;;;;5055598;28;20082;-79
2023/01/05 02:41:55;;;;;;;0.85;0.30;;;8.80;99.90;;;;;;5039365;28;20029;-79
2023/01/05 02:44:26;;;;;;;0.25;0.20;;;8.80;99.90;;;;;;5053360;28;20029;-79
2023/01/05 02:46:59;;;;;;;0.30;0.30;;;8.80;99.90;;;;;;5056141;28;20108;-79
2023/01/05 02:49:27;;;;;;;0.20;0.20;;;8.80;99.90;;;;;;5076277;28;20104;-79
2023/01/05 02:51:55;;;;;;;0.35;0.35;;;8.90;99.90;;;;;;5027210;28;20481;-79
2023/01/05 02:54:41;;;;;;;0.40;0.40;;;8.80;99.90;;;;;;5050286;28;20112;-79
2023/01/05 02:57:16;;;;;;;0.32;0.30;;;8.80;99.90;;;;;;5057595;28;20400;-79
2023/01/05 02:59:50;;;;;;;0.40;0.40;;;8.80;99.90;;;;;;5038968;28;20063;-79
2023/01/05 03:02:23;;;;;;;0.35;0.35;;;8.80;99.90;;;;;;5055545;28;20089;-78
2023/01/05 03:05:15;;;;;;;0.70;0.20;;;8.80;99.90;;;;;;5054387;28;20082;-79
2023/01/05 03:07:42;;;;;;;1.77;0.40;;;8.70;99.90;;;;;;5053916;28;20029;-79
2023/01/05 03:15:48;;;;;;;1.75;0.30;;;8.80;99.90;;;;;;5050112;28;20025;-79
2023/01/05 03:18:19;;;;;;;0.95;0.40;;;8.80;99.90;;;;;;5074797;28;20035;-79
2023/01/05 03:20:51;;;;;;;3.03;0.40;;;8.80;99.90;;;;;;5064618;28;20082;-80
2023/01/05 03:37:49;;;;;;;0.20;0.20;;;8.80;99.90;;;;;;5055514;28;20447;-80
2023/01/05 03:40:21;;;;;;;0.60;0.20;;;8.80;99.90;;;;;;5057393;28;20051;-80
2023/01/05 03:42:51;;;;;;;0.10;0.10;;;8.80;99.90;;;;;;5058476;28;20094;-80
2023/01/05 03:45:18;;;;;;;0.40;0.30;;;8.80;99.90;;;;;;5059610;28;20059;-80
2023/01/05 03:47:44;;;;;;;2.47;0.25;;;8.80;99.90;;;;;;5065324;28;20025;-80
2023/01/05 03:50:11;;;;;;;0.00;0.00;;;8.80;99.90;;;;;;5059237;28;20037;-80
2023/01/05 03:52:36;;;;;;;6.60;0.73;;;8.80;99.90;;;;;;5035894;28;20029;-81
2023/01/05 03:55:02;;;;;;;46.10;3.13;;;8.80;99.90;;;;;;5068772;28;20043;-81
2023/01/05 03:57:29;;;;;;;1.17;0.10;;;8.80;99.90;;;;;;5059908;28;20029;-80
2023/01/05 03:59:57;;;;;;;1.65;0.20;;;8.80;99.90;;;;;;5042269;28;20035;-80
2023/01/05 04:02:24;;;;;;;0.60;0.20;;;8.80;99.90;;;;;;5054859;28;20044;-79
2023/01/05 04:04:50;;;;;;;0.47;0.28;;;8.80;99.90;;;;;;5060562;28;20028;-80
2023/01/05 04:07:16;;;;;;;1.40;0.20;;;8.80;99.90;;;;;;5038360;28;20574;-81
2023/01/05 04:09:42;;;;;;;1.35;0.30;;;8.80;99.90;;;;;;5058991;28;20033;-80
2023/01/05 04:12:08;;;;;;;2.22;0.10;;;8.80;99.90;;;;;;5045567;28;20400;-80
2023/01/05 04:14:39;;;;;;;0.10;0.10;;;8.80;99.90;;;;;;5062101;28;20013;-81
2023/01/05 04:17:05;;;;;;;1.40;0.30;;;8.80;99.90;;;;;;5058929;28;20029;-81
2023/01/05 04:19:31;;;;;;;1.48;0.20;;;8.70;99.90;;;;;;5038224;28;20405;-79
2023/01/05 04:21:57;;;;;;;0.30;0.10;;;8.80;99.90;;;;;;5050327;28;20036;-80
2023/01/05 04:24:24;;;;;;;2.67;0.35;;;8.70;99.90;;;;;;5062204;28;20101;-80
2023/01/05 04:26:50;;;;;;;45.33;2.47;;;8.70;99.90;;;;;;5058319;28;20100;-80
2023/01/05 04:29:18;;;;;;;3.63;0.35;;;8.70;99.90;;;;;;5075679;28;20021;-81
2023/01/05 04:31:47;;;;;;;1.95;0.20;;;8.70;99.90;;;;;;5056469;28;20032;-80
2023/01/05 04:34:13;;;;;;;0.20;0.20;;;8.70;99.90;;;;;;5058505;28;20040;-80
2023/01/05 04:36:39;;;;;;;0.60;0.40;;;8.70;99.90;;;;;;5042340;28;20447;-80
2023/01/05 04:39:06;;;;;;;56.17;4.32;;;8.70;99.90;;;;;;5057562;28;20089;-80
2023/01/05 04:41:35;;;;;;;3.35;1.92;;;8.70;99.90;;;;;;5057508;28;20036;-80
2023/01/05 04:44:01;;;;;;;3.88;0.57;;;8.70;99.90;;;;;;5067115;28;20098;-80
2023/01/05 04:46:27;;;;;;;4.03;0.40;;;8.60;99.90;;;;;;5061953;28;20045;-79
2023/01/05 04:48:55;;;;;;;4.07;1.60;;;8.60;99.90;;;;;;5057793;28;20098;-80
2023/01/05 04:51:22;;;;;;;4.22;0.73;;;8.50;99.90;;;;;;5057517;28;20059;-79
2023/01/05 04:53:48;;;;;;;6.47;1.08;;;8.40;99.90;;;;;;5042426;28;20029;-80
2023/01/05 04:56:16;;;;;;;4.22;0.60;;;8.30;99.90;;;;;;5072320;28;20033;-80
2023/01/05 04:58:44;;;;;;;6.45;0.70;;;8.30;99.90;;;;;;5025563;28;20029;-80
2023/01/05 05:01:11;;;;;;;4.95;0.80;;;8.20;99.90;;;;;;5061921;28;20032;-80
2023/01/05 05:03:39;;;;;;;7.93;0.57;;;8.10;99.90;;;;;;5049521;28;20498;-80
2023/01/05 05:06:08;;;;;;;7.18;0.70;;;8.10;99.90;;;;;;5060058;28;20488;-79
2023/01/05 05:08:34;;;;;;;7.47;0.90;;;8.00;99.90;;;;;;5061114;28;20397;-79
2023/01/05 05:11:02;;;;;;;2.75;0.57;;;7.90;99.90;;;;;;5041785;28;20033;-79
2023/01/05 05:13:32;;;;;;;24.95;1.25;;;7.90;99.90;;;;;;5052992;28;20039;-78
2023/01/05 05:16:00;;;;;;;7.20;1.02;;;7.80;99.90;;;;;;5041961;28;20038;-79
2023/01/05 05:18:27;;;;;;;1.45;0.47;;;7.70;99.90;;;;;;5041202;28;20040;-78
2023/01/05 05:20:54;;;;;;;5.13;0.50;;;7.70;99.90;;;;;;5050881;28;20024;-78
2023/01/05 05:23:24;;;;;;;3.53;0.40;;;7.70;99.90;;;;;;5042582;28;20024;-80
2023/01/05 05:25:51;;;;;;;2.60;0.68;;;7.60;99.90;;;;;;5048509;28;20064;-80
2023/01/05 05:28:35;;;;;;;54.60;2.17;;;7.60;99.90;;;;;;5073562;28;20061;-80
2023/01/05 05:31:02;;;;;;;6.63;0.57;;;7.60;99.90;;;;;;5055099;28;20036;-80
2023/01/05 05:33:27;;;;;;;15.95;1.25;;;7.60;99.90;;;;;;5051972;28;20032;-79
2023/01/05 05:35:53;;;;;;;6.70;0.80;;;7.60;99.90;;;;;;5046628;28;20396;-79
2023/01/05 05:38:19;;;;;;;7.07;0.65;;;7.50;99.90;;;;;;5077059;28;20059;-79
2023/01/05 05:40:48;;;;;;;13.20;1.15;;;7.50;99.90;;;;;;5044335;28;20082;-79
2023/01/05 05:43:14;;;;;;;13.23;0.85;;;7.50;99.90;;;;;;5064163;28;20562;-81
2023/01/05 05:45:40;;;;;;;13.32;1.20;;;7.50;99.90;;;;;;5049284;28;20040;-79
2023/01/05 05:48:05;;;;;;;2.28;0.40;;;7.40;99.90;;;;;;5036530;28;20037;-80
2023/01/05 05:50:32;;;;;;;6.65;0.70;;;7.40;99.90;;;;;;5055973;28;20055;-78
2023/01/05 05:53:05;;;;;;;8.02;0.70;;;7.40;99.90;;;;;;5022054;28;20052;-77
2023/01/05 05:55:32;;;;;;;17.58;1.27;;;7.30;99.90;;;;;;5044022;28;20908;-79
2023/01/05 05:57:57;;;;;;;7.05;0.80;;;7.30;99.90;;;;;;5023439;28;20536;-79
2023/01/05 06:00:23;;;;;;;6.63;0.73;;;7.30;99.90;;;;;;5060026;28;20456;-79
2023/01/05 06:02:49;;;;;;;3.58;0.60;;;7.30;99.90;;;;;;5044649;28;20029;-80
2023/01/05 06:05:15;;;;;;;4.97;0.70;;;7.30;99.90;;;;;;5041235;28;20119;-78
2023/01/05 06:07:41;;;;;;;5.85;0.93;;;7.20;99.90;;;;;;5035004;28;20041;-79
2023/01/05 06:10:08;;;;;;;7.65;0.90;;;7.20;99.90;;;;;;5070813;28;20504;-79
2023/01/05 06:12:33;;;;;;;23.88;1.25;;;7.20;99.90;;;;;;5036555;28;20043;-79
2023/01/05 06:14:59;;;;;;;13.60;1.00;;;7.20;99.90;;;;;;5050732;28;20033;-78
2023/01/05 06:17:25;;;;;;;7.85;0.85;;;7.20;99.90;;;;;;5069227;28;20123;-79
2023/01/05 06:19:51;;;;;;;8.82;0.77;;;7.20;99.90;;;;;;5056648;28;20547;-79
2023/01/05 06:22:17;;;;;;;19.27;1.20;;;7.20;99.90;;;;;;5020765;28;20028;-79
2023/01/05 06:24:42;;;;;;;27.02;1.45;;;7.10;99.90;;;;;;5030815;28;20029;-79
2023/01/05 06:27:09;;;;;;;10.15;0.75;;;7.10;99.90;;;;;;5045300;28;20103;-79
2023/01/05 06:29:35;;;;;;;27.35;1.08;;;7.10;99.90;;;;;;5014894;28;20064;-79
2023/01/05 06:32:01;;;;;;;13.60;1.85;;;7.00;99.90;;;;;;5065732;28;20028;-79
2023/01/05 06:34:27;;;;;;;23.38;1.25;;;7.10;99.90;;;;;;5044371;28;20037;-79
2023/01/05 06:36:55;;;;;;;18.60;1.08;;;7.00;99.90;;;;;;5042912;28;20559;-79
2023/01/05 06:39:21;;;;;;;8.65;0.77;;;7.00;99.90;;;;;;5052986;28;20023;-78
2023/01/05 06:41:47;;;;;;;50.55;2.65;;;7.00;99.90;;;;;;5050244;28;20059;-80
2023/01/05 06:44:12;;;;;;;3.47;0.52;;;7.00;99.90;;;;;;5025991;28;20493;-80
2023/01/05 06:46:39;;;;;;;5.88;0.70;;;7.00;99.90;;;;;;5036811;28;20035;-80
2023/01/05 06:49:05;;;;;;;1.17;0.50;;;7.10;99.90;;;;;;5035792;28;20036;-79
2023/01/05 06:51:31;;;;;;;8.45;0.75;;;7.10;99.90;;;;;;5036708;28;20047;-79
2023/01/05 06:53:57;;;;;;;8.23;1.20;;;7.10;99.90;;;;;;5044891;28;20041;-80
2023/01/05 06:56:23;;;;;;;4.28;0.88;;;7.20;99.90;;;;;;5025996;28;20031;-82
2023/01/05 06:58:49;;;;;;;12.88;1.25;;;7.20;99.90;;;;;;5056949;28;20096;-82
2023/01/05 07:01:15;;;;;;;7.93;1.33;;;7.20;99.90;;;;;;5028574;28;20032;-79
2023/01/05 07:03:40;;;;;;;4.85;0.98;;;7.30;99.90;;;;;;5064344;28;20039;-80
2023/01/05 07:06:06;;;;;;;7.25;1.13;;;7.30;99.90;;;;;;5054156;28;20036;-78
2023/01/05 07:08:32;;;;;;;6.18;0.90;;;7.30;99.90;;;;;;5045729;28;20032;-79
2023/01/05 07:10:58;;;;;;;5.32;0.82;;;7.30;99.90;;;;;;5059393;28;20649;-80
2023/01/05 07:13:24;;;;;;;18.23;1.50;;;7.40;99.90;;;;;;5046806;28;20051;-82
2023/01/05 07:15:50;;;;;;;36.35;2.75;;;7.40;99.90;;;;;;5037441;28;20412;-80
2023/01/05 07:18:16;;;;;;;14.43;1.25;;;7.40;99.90;;;;;;5042658;28;20434;-80
2023/01/05 07:20:42;;;;;;;9.25;1.10;;;7.40;99.90;;;;;;5057840;28;20066;-81
2023/01/05 07:23:08;;;;;;;42.17;3.20;;;7.40;99.90;;;;;;5042021;28;20526;-80
2023/01/05 07:25:34;;;;;;;12.63;1.60;;;7.50;99.90;;;;;;5042758;28;20044;-80
2023/01/05 07:27:59;;;;;;;6.03;1.17;;;7.40;99.90;;;;;;5050260;28;20039;-81
2023/01/05 07:30:25;;;;;;;5.13;1.40;;;7.50;99.90;;;;;;5080332;28;20029;-80
2023/01/05 07:32:51;;;;;;;11.48;1.77;;;7.50;99.90;;;;;;5069132;28;20037;-78
2023/01/05 07:35:17;;;;;;;8.18;1.02;;;7.50;99.90;;;;;;5057139;28;20507;-78
2023/01/05 07:37:43;;;;;;;8.05;1.17;;;7.50;99.90;;;;;;5019869;28;20041;-79
2023/01/05 07:40:10;;;;;;;12.30;1.58;;;7.50;99.90;;;;;;5071860;28;20119;-79
2023/01/05 07:42:35;;;;;;;11.13;1.27;;;7.40;99.90;;;;;;5053497;28;20040;-82
2023/01/05 07:45:03;;;;;;;6.50;1.38;;;7.40;99.90;;;;;;5040446;28;20555;-80
2023/01/05 07:47:30;;;;;;;11.70;1.35;;;7.40;99.90;;;;;;5043389;28;20032;-80
2023/01/05 07:49:55;;;;;;;8.55;1.02;;;7.40;99.90;;;;;;5069692;28;20032;-80
2023/01/05 07:52:21;;;;;;;7.00;1.00;;;7.40;99.90;;;;;;5038755;28;20031;-80
2023/01/05 07:54:47;;;;;;;7.65;1.20;;;7.40;99.90;;;;;;5058604;28;20040;-79
2023/01/05 07:57:13;;;;;;;5.18;0.98;;;7.40;99.90;;;;;;5054449;28;20634;-79
2023/01/05 07:59:39;;;;;;;2.92;0.90;;;7.40;99.90;;;;;;5052398;28;20064;-82
2023/01/05 08:02:05;;;;;;;8.13;1.52;;;7.30;99.90;;;;;;5056524;28;20120;-80
2023/01/05 08:04:31;;;;;;;7.28;1.27;;;7.40;99.90;;;;;;5071360;28;20045;-80
2023/01/05 08:06:57;;;;;;;5.10;1.13;;;7.30;99.90;;;;;;5057176;28;20120;-80
2023/01/05 08:12:07;;;;;;;10.05;1.60;;;7.40;99.90;;;;;;5067464;28;20689;-79
2023/01/05 08:14:33;;;;;;;10.18;1.48;;;7.40;99.90;;;;;;5040296;28;20123;-80
2023/01/05 08:16:59;;;;;;;12.00;1.23;;;7.50;99.90;;;;;;5058617;28;20028;-79
2023/01/05 08:19:25;;;;;;;11.20;1.65;;;7.40;99.90;;;;;;5069960;28;20024;-79
2023/01/05 08:21:53;;;;;;;8.02;1.60;;;7.40;99.90;;;;;;5050522;28;20060;-79
2023/01/05 08:24:19;;;;;;;12.48;2.00;;;7.50;99.90;;;;;;5057922;28;20052;-79
2023/01/05 08:26:44;;;;;;;6.43;1.05;;;7.50;99.90;;;;;;5057225;28;20548;-79
2023/01/05 08:29:10;;;;;;;13.70;1.33;;;7.50;99.90;;;;;;5054276;28;20382;-79
2023/01/05 08:31:38;;;;;;;12.57;1.58;;;7.50;99.90;;;;;;5038777;28;20032;-78
2023/01/05 08:34:04;;;;;;;9.93;1.30;;;7.50;99.90;;;;;;5055832;28;20036;-79
2023/01/05 08:36:30;;;;;;;6.15;1.10;;;7.50;99.90;;;;;;5072939;28;20032;-78
2023/01/05 08:38:56;;;;;;;14.25;1.65;;;7.50;99.90;;;;;;5074036;28;20048;-80
2023/01/05 08:41:27;;;;;;;11.07;1.10;;;7.50;99.90;;;;;;5057516;28;20032;-79
2023/01/05 08:43:56;;;;;;;6.28;1.20;;;7.50;99.90;;;;;;5066101;28;20032;-79
2023/01/05 08:46:26;;;;;;;7.47;1.02;;;7.60;99.90;;;;;;5035494;28;20028;-79
2023/01/05 08:48:54;;;;;;;9.63;1.65;;;7.50;99.90;;;;;;5079395;28;20036;-80
2023/01/05 08:51:20;;;;;;;9.50;1.33;;;7.60;99.90;;;;;;5056188;28;20116;-79
2023/01/05 08:53:47;;;;;;;10.48;1.15;;;7.60;99.90;;;;;;5039539;28;20044;-77
2023/01/05 08:56:13;;;;;;;5.45;0.95;;;7.60;99.90;;;;;;5073874;28;20096;-79
2023/01/05 08:58:41;;;;;;;9.40;1.70;;;7.60;99.90;;;;;;5038711;28;20082;-79
2023/01/05 09:01:08;;;;;;;12.30;1.65;;;7.60;99.90;;;;;;5050891;28;20033;-78
2023/01/05 09:03:34;;;;;;;12.02;2.13;;;7.70;99.90;;;;;;5064779;28;20024;-79
2023/01/05 09:06:01;;;;;;;9.55;1.60;;;7.70;99.90;;;;;;5053247;28;20590;-81
2023/01/05 09:08:28;;;;;;;10.00;1.50;;;7.70;99.90;;;;;;5079519;28;20029;-79
2023/01/05 09:10:54;;;;;;;12.02;1.30;;;7.70;99.90;;;;;;5051767;28;20039;-79
2023/01/05 09:13:20;;;;;;;11.02;1.50;;;7.70;99.90;;;;;;5047909;28;20036;-80
2023/01/05 09:15:46;;;;;;;12.48;1.50;;;7.80;99.90;;;;;;5070753;28;20044;-77
2023/01/05 09:18:12;;;;;;;8.43;1.65;;;7.80;99.90;;;;;;5041538;28;20059;-79
2023/01/05 09:20:37;;;;;;;10.77;1.45;;;7.80;99.90;;;;;;5042788;28;20020;-80
2023/01/05 09:23:03;;;;;;;10.98;1.90;;;7.80;99.90;;;;;;5023177;28;20037;-80
2023/01/05 09:25:29;;;;;;;10.20;1.23;;;7.80;99.90;;;;;;5063002;28;20039;-80
2023/01/05 09:27:54;;;;;;;11.50;1.92;;;7.80;99.90;;;;;;5059416;28;20505;-80
2023/01/05 09:30:20;;;;;;;14.10;1.27;;;7.80;99.90;;;;;;5075560;28;20096;-79
2023/01/05 09:32:46;;;;;;;12.50;3.53;;;7.80;99.90;;;;;;5069105;28;20025;-78
2023/01/05 09:35:12;;;;;;;10.65;1.70;;;7.90;99.90;;;;;;5077878;28;20025;-79
2023/01/05 09:37:37;;;;;;;6.32;0.98;;;7.90;99.90;;;;;;5084756;28;20032;-80
2023/01/05 09:40:04;;;;;;;7.78;1.30;;;7.90;99.90;;;;;;5042394;28;20047;-80
2023/01/05 09:42:31;;;;;;;8.77;1.15;;;7.90;99.90;;;;;;5070134;28;20032;-80
2023/01/05 09:45:01;;;;;;;14.93;1.50;;;7.90;99.90;;;;;;5072392;28;20051;-80
2023/01/05 09:47:37;;;;;;;14.32;1.40;;;7.90;99.90;;;;;;5073533;28;20496;-79
2023/01/05 09:50:16;;;;;;;9.50;1.23;;;7.90;99.90;;;;;;5055644;28;20028;-80
2023/01/05 09:52:42;;;;;;;13.32;1.90;;;8.00;99.90;;;;;;5063442;28;20032;-81
2023/01/05 09:55:18;;;;;;;12.73;1.50;;;7.90;99.90;;;;;;5068256;28;20024;-80
2023/01/05 09:58:06;;;;;;;10.02;1.20;;;7.90;99.90;;;;;;5056712;28;20029;-80
2023/01/05 10:00:37;;;;;;;8.77;1.63;;;7.90;99.90;;;;;;5070956;28;20087;-80
2023/01/05 10:03:09;;;;;;;8.30;1.20;;;7.80;99.90;;;;;;5033855;28;20059;-80
2023/01/05 10:05:40;;;;;;;3.75;1.10;;;7.70;99.90;;;;;;5077406;28;20037;-80
2023/01/05 10:08:15;;;;;;;12.10;1.80;;;7.70;99.90;;;;;;5076252;28;20089;-80
2023/01/05 10:13:39;;;;;;;10.77;1.05;;;7.60;99.90;;;;;;5050699;28;20032;-80
2023/01/05 10:16:05;;;;;;;7.80;1.92;;;7.60;99.90;;;;;;5050279;28;20107;-80
2023/01/05 10:18:33;;;;;;;7.00;1.67;;;7.60;99.90;;;;;;5063412;28;20083;-80
2023/01/05 10:21:23;;;;;;;13.98;1.10;;;7.70;99.90;;;;;;5056619;28;20674;-80
2023/01/05 10:24:08;;;;;;;12.13;2.03;;;7.70;99.90;;;;;;5072781;28;20064;-79
2023/01/05 10:26:45;;;;;;;;;;;7.80;99.90;;;;;;5075382;28;20108;-80
2023/01/05 10:29:16;;;;;;;8.88;1.60;;;7.80;99.90;;;;;;5074580;28;19920;-80
2023/01/05 10:32:06;;;;;;;9.43;1.58;;;7.80;99.90;;;;;;5050352;28;20056;-79
2023/01/05 10:34:58;;;;;;;11.50;1.42;;;7.80;99.90;;;;;;5068630;28;20043;-79
2023/01/05 10:37:43;;;;;;;7.07;1.05;;;7.80;99.90;;;;;;5070287;28;20035;-78
2023/01/05 10:40:27;;;;;;;7.78;1.15;;;7.80;99.90;;;;;;5065961;28;20021;-79
2023/01/05 10:43:14;;;;;;;7.25;1.00;;;8.00;99.90;;;;;;5057914;28;20032;-80
2023/01/05 10:45:40;;;;;;;14.45;1.92;;;8.00;99.90;;;;;;5050924;28;20267;-79
2023/01/05 10:48:17;;;;;;;10.48;1.23;;;8.10;99.90;;;;;;5071965;28;20032;-78
2023/01/05 10:50:46;;;;;;;7.97;1.45;;;8.20;99.90;;;;;;5039877;28;20032;-79
2023/01/05 10:53:21;;;;;;;11.18;1.50;;;8.20;99.90;;;;;;5053233;28;20103;-79
2023/01/05 10:56:03;;;;;;;9.32;1.85;;;8.20;99.90;;;;;;5070568;28;20301;-79
2023/01/05 10:58:37;;;;;;;13.48;1.92;;;8.30;99.90;;;;;;5071505;28;20029;-79
2023/01/05 11:01:04;;;;;;;10.35;1.50;;;8.30;99.90;;;;;;5039731;28;20085;-79
2023/01/05 11:03:40;;;;;;;8.93;1.65;;;8.30;99.90;;;;;;5070429;28;20052;-80
2023/01/05 11:06:07;;;;;;;;;;;8.30;99.90;;;;;;5076415;28;20074;-78
2023/01/05 11:08:34;;;;;;;9.10;1.30;;;8.30;99.90;;;;;;5064661;28;20291;-79
2023/01/05 11:11:06;;;;;;;6.30;1.30;;;8.30;99.90;;;;;;5077146;28;20035;-79
2023/01/05 11:13:35;;;;;;;10.05;1.67;;;8.30;99.90;;;;;;5073432;28;20156;-79
2023/01/05 11:16:19;;;;;;;9.70;2.50;;;8.30;99.90;;;;;;5072325;28;20528;-80
2023/01/05 11:19:11;;;;;;;12.90;1.38;;;8.30;99.90;;;;;;5077796;28;20659;-79
2023/01/05 11:21:42;;;;;;;6.82;1.25;;;8.40;99.90;;;;;;5038157;28;20110;-79
2023/01/05 11:24:27;;;;;;;8.52;1.30;;;8.40;99.90;;;;;;5055284;28;20064;-80
2023/01/05 11:26:54;;;;;;;6.47;1.15;;;8.50;99.90;;;;;;5075619;28;20051;-79
2023/01/05 11:29:20;;;;;;;8.88;1.95;;;8.50;99.90;;;;;;5080865;28;20040;-79
2023/01/05 11:31:50;;;;;;;4.93;1.33;;;8.50;99.90;;;;;;5071612;28;20021;-79
2023/01/05 11:34:39;;;;;;;6.85;1.10;;;8.50;99.90;;;;;;5077074;28;20029;-79
2023/01/05 11:37:07;;;;;;;6.03;1.00;;;8.50;99.90;;;;;;5056213;28;20039;-79
2023/01/05 11:39:39;;;;;;;8.30;1.25;;;8.50;99.90;;;;;;5078237;28;20069;-79
2023/01/05 11:42:31;;;;;;;4.10;1.00;;;8.50;99.90;;;;;;5068032;28;20116;-78
2023/01/05 11:45:15;;;;;;;6.28;0.98;;;8.50;99.90;;;;;;5053967;28;20390;-79
2023/01/05 11:47:45;;;;;;;9.80;1.30;;;8.50;99.90;;;;;;5069796;28;20557;-78
2023/01/05 11:50:26;;;;;;;12.20;1.33;;;8.60;99.90;;;;;;5063332;28;20052;-78
2023/01/05 11:53:33;;;;;;;6.47;1.10;;;8.60;99.90;;;;;;5070469;28;20025;-79
2023/01/05 11:56:01;;;;;;;8.65;0.93;;;8.60;99.90;;;;;;5076155;28;20020;-78
2023/01/05 11:58:41;;;;;;;3.67;0.75;;;8.60;99.90;;;;;;5070059;28;20115;-78
2023/01/05 12:01:36;;;;;;;9.35;2.13;;;8.60;99.90;;;;;;5051375;28;20078;-78
2023/01/05 12:04:05;;;;;;;4.70;1.17;;;8.60;99.90;;;;;;5061574;28;20525;-78
2023/01/05 12:07:08;;;;;;;3.80;1.05;;;8.60;99.90;;;;;;5051829;28;20036;-79
2023/01/05 12:09:38;;;;;;;9.27;1.30;;;8.60;99.90;;;;;;5054794;28;20024;-78
2023/01/05 12:12:37;;;;;;;7.28;1.30;;;8.50;99.90;;;;;;5066778;28;20033;-78
2023/01/05 12:15:54;;;;;;;4.80;1.00;;;8.50;99.90;;;;;;5067499;28;20163;-80
2023/01/05 12:18:22;;;;;;;8.37;1.43;;;8.60;99.90;;;;;;5009164;28;20776;-78
2023/01/05 12:20:55;;;;;;;6.55;1.40;;;8.50;99.90;;;;;;5005431;28;20053;-78
2023/01/05 12:23:48;;;;;;;5.10;1.30;;;8.50;99.90;;;;;;5042185;28;20048;-79
2023/01/05 12:26:21;;;;;;;7.82;1.65;;;8.40;99.90;;;;;;5068274;28;20032;-79
2023/01/05 12:28:59;;;;;;;10.10;1.45;;;8.40;99.90;;;;;;5074983;28;20118;-78
2023/01/05 12:31:34;;;;;;;12.27;1.65;;;8.30;99.90;;;;;;5068580;28;20043;-79
2023/01/05 12:34:02;;;;;;;7.28;1.30;;;8.30;99.90;;;;;;5049008;28;20040;-79
2023/01/05 12:37:02;;;;;;;5.82;1.27;;;8.20;99.90;;;;;;5070668;28;20024;-79
2023/01/05 12:40:02;;;;;;;5.57;1.45;;;8.20;99.90;;;;;;5071079;28;20481;-79
2023/01/05 12:42:53;;;;;;;6.75;1.50;;;8.20;99.90;;;;;;5067848;28;20492;-79
2023/01/05 12:45:44;;;;;;;10.07;1.77;;;8.20;99.90;;;;;;5070101;28;20040;-79
2023/01/05 12:48:21;;;;;;;7.95;1.40;;;8.20;99.90;;;;;;5059725;28;20077;-79
2023/01/05 12:51:04;;;;;;;5.18;1.13;;;8.30;99.90;;;;;;5071585;28;20032;-79
2023/01/05 12:54:01;;;;;;;4.82;1.17;;;8.30;99.90;;;;;;5068955;28;20064;-79
2023/01/05 12:56:52;;;;;;;8.57;1.70;;;8.20;99.90;;;;;;5072507;28;20392;-78
2023/01/05 12:59:36;;;;;;;8.68;1.42;;;8.20;99.90;;;;;;5076705;28;20020;-79
2023/01/05 13:02:13;;;;;;;4.45;0.90;;;8.20;99.90;;;;;;5070759;28;20740;-79
2023/01/05 13:04:46;;;;;;;10.98;1.42;;;8.20;99.90;;;;;;5074533;28;20055;-79
2023/01/05 13:07:48;;;;;;;10.20;1.75;;;8.20;99.90;;;;;;5073341;28;20033;-80
2023/01/05 13:10:36;;;;;;;8.82;1.77;;;8.20;99.90;;;;;;5057673;28;20029;-79
2023/01/05 13:13:10;;;;;;;7.57;1.27;;;8.30;99.90;;;;;;5068238;28;20033;-80
2023/01/05 13:15:42;;;;;;;9.98;1.52;;;8.20;99.90;;;;;;5074552;28;20024;-79
2023/01/05 13:18:14;;;;;;;6.65;1.13;;;8.20;99.90;;;;;;5058639;28;20021;-80
2023/01/05 13:21:00;;;;;;;7.18;1.27;;;8.20;99.90;;;;;;5042608;28;20031;-79
2023/01/05 13:23:31;;;;;;;;;;;8.10;99.90;;;;;;5055470;28;20579;-80
2023/01/05 13:26:01;;;;;;;1.80;1.05;;;8.10;99.90;;;;;;5054513;28;19995;-79
2023/01/05 13:28:27;;;;;;;6.68;1.38;;;8.10;99.90;;;;;;5052490;28;20086;-79
2023/01/05 13:30:59;;;;;;;9.15;1.30;;;8.10;99.90;;;;;;5068813;28;20727;-79
2023/01/05 13:33:45;;;;;;;7.07;1.48;;;8.10;99.90;;;;;;5049581;28;20056;-79
2023/01/05 13:36:26;;;;;;;;;;;8.00;99.90;;;;;;5054847;28;20438;-79
2023/01/05 13:38:57;;;;;;;6.50;1.27;;;8.00;99.90;;;;;;5075407;28;20133;-79
2023/01/05 13:41:28;;;;;;;5.60;1.70;;;7.90;99.90;;;;;;5055609;28;20040;-79
2023/01/05 13:44:25;;;;;;;6.47;1.30;;;7.90;99.90;;;;;;5055929;28;20028;-79
2023/01/05 13:47:04;;;;;;;8.10;1.30;;;8.00;99.90;;;;;;5051836;28;20029;-80
2023/01/05 13:50:01;;;;;;;5.75;1.40;;;7.90;99.90;;;;;;5055710;28;20079;-80
2023/01/05 13:52:45;;;;;;;6.43;1.35;;;7.90;99.90;;;;;;5067363;28;20036;-80
2023/01/05 13:55:15;;;;;;;9.52;1.50;;;7.90;99.90;;;;;;5064370;28;20028;-80